sensor_id;sensor_type;location;lat;lon;timestamp;temperature;humidity
12006;DHT22;6062;47.294;12.182;2023-03-02T00:00:06;0.40;59.50
12006;DHT22;6062;47.294;12.182;2023-03-02T00:02:39;0.40;59.40
12006;DHT22;6062;47.294;12.182;2023-03-02T00:05:06;0.50;59.40
12006;DHT22;6062;47.294;12.182;2023-03-02T00:07:36;0.50;59.30
12006;DHT22;6062;47.294;12.182;2023-03-02T00:10:03;0.60;59.40
12006;DHT22;6062;47.294;12.182;2023-03-02T00:12:31;0.60;59.20
12006;DHT22;6062;47.294;12.182;2023-03-02T00:14:58;0.60;59.20
12006;DHT22;6062;47.294;12.182;2023-03-02T00:17:24;0.60;59.10
12006;DHT22;6062;47.294;12.182;2023-03-02T00:19:56;0.70;59.10
12006;DHT22;6062;47.294;12.182;2023-03-02T00:22:43;0.70;59.20
12006;DHT22;6062;47.294;12.182;2023-03-02T00:25:12;0.70;58.90
12006;DHT22;6062;47.294;12.182;2023-03-02T00:27:39;0.70;58.80
12006;DHT22;6062;47.294;12.182;2023-03-02T00:30:05;0.70;58.60
12006;DHT22;6062;47.294;12.182;2023-03-02T00:32:33;0.70;58.60
12006;DHT22;6062;47.294;12.182;2023-03-02T00:34:59;0.80;58.40
12006;DHT22;6062;47.294;12.182;2023-03-02T00:37:25;0.80;58.20
12006;DHT22;6062;47.294;12.182;2023-03-02T00:39:51;0.80;58.20
12006;DHT22;6062;47.294;12.182;2023-03-02T00:42:18;0.80;58.10
12006;DHT22;6062;47.294;12.182;2023-03-02T00:44:44;0.80;58.10
12006;DHT22;6062;47.294;12.182;2023-03-02T00:47:09;0.80;58.30
12006;DHT22;6062;47.294;12.182;2023-03-02T00:49:35;0.80;58.40
12006;DHT22;6062;47.294;12.182;2023-03-02T00:52:02;0.80;58.30
12006;DHT22;6062;47.294;12.182;2023-03-02T00:54:28;0.80;58.40
12006;DHT22;6062;47.294;12.182;2023-03-02T00:56:54;0.80;58.20
12006;DHT22;6062;47.294;12.182;2023-03-02T00:59:19;0.80;58.40
12006;DHT22;6062;47.294;12.182;2023-03-02T01:01:52;0.80;58.30
12006;DHT22;6062;47.294;12.182;2023-03-02T01:04:29;0.80;58.10
12006;DHT22;6062;47.294;12.182;2023-03-02T01:07:02;0.80;57.90
12006;DHT22;6062;47.294;12.182;2023-03-02T01:09:32;0.80;57.80
12006;DHT22;6062;47.294;12.182;2023-03-02T01:11:58;0.80;57.60
12006;DHT22;6062;47.294;12.182;2023-03-02T01:14:25;0.80;57.60
12006;DHT22;6062;47.294;12.182;2023-03-02T01:16:51;0.80;57.60
12006;DHT22;6062;47.294;12.182;2023-03-02T01:19:17;0.80;57.70
12006;DHT22;6062;47.294;12.182;2023-03-02T01:21:43;0.70;57.60
12006;DHT22;6062;47.294;12.182;2023-03-02T01:24:10;0.70;57.70
12006;DHT22;6062;47.294;12.182;2023-03-02T01:26:36;0.70;57.90
12006;DHT22;6062;47.294;12.182;2023-03-02T01:29:03;0.70;58.00
12006;DHT22;6062;47.294;12.182;2023-03-02T01:31:29;0.70;58.00
12006;DHT22;6062;47.294;12.182;2023-03-02T01:33:55;0.70;58.00
12006;DHT22;6062;47.294;12.182;2023-03-02T01:36:21;0.70;58.00
12006;DHT22;6062;47.294;12.182;2023-03-02T01:38:48;0.70;57.80
12006;DHT22;6062;47.294;12.182;2023-03-02T01:41:15;0.70;57.70
12006;DHT22;6062;47.294;12.182;2023-03-02T01:43:42;0.70;57.70
12006;DHT22;6062;47.294;12.182;2023-03-02T01:49:04;0.70;58.00
12006;DHT22;6062;47.294;12.182;2023-03-02T01:51:39;0.70;58.00
12006;DHT22;6062;47.294;12.182;2023-03-02T01:54:13;0.70;58.00
12006;DHT22;6062;47.294;12.182;2023-03-02T01:56:51;0.80;58.00
12006;DHT22;6062;47.294;12.182;2023-03-02T01:59:22;0.80;58.00
12006;DHT22;6062;47.294;12.182;2023-03-02T02:01:53;0.80;58.00
12006;DHT22;6062;47.294;12.182;2023-03-02T02:04:22;0.80;58.00
12006;DHT22;6062;47.294;12.182;2023-03-02T02:07:03;0.80;58.00
12006;DHT22;6062;47.294;12.182;2023-03-02T02:09:39;0.90;58.00
12006;DHT22;6062;47.294;12.182;2023-03-02T02:12:17;0.90;57.80
12006;DHT22;6062;47.294;12.182;2023-03-02T02:14:45;0.90;57.70
12006;DHT22;6062;47.294;12.182;2023-03-02T02:17:12;0.90;57.70
12006;DHT22;6062;47.294;12.182;2023-03-02T02:19:43;0.90;57.80
12006;DHT22;6062;47.294;12.182;2023-03-02T02:28:02;1.00;57.70
12006;DHT22;6062;47.294;12.182;2023-03-02T02:30:34;1.10;57.70
12006;DHT22;6062;47.294;12.182;2023-03-02T02:33:03;1.10;57.70
12006;DHT22;6062;47.294;12.182;2023-03-02T02:35:31;1.20;57.80
12006;DHT22;6062;47.294;12.182;2023-03-02T02:38:04;1.20;57.80
12006;DHT22;6062;47.294;12.182;2023-03-02T02:40:50;1.20;57.70
12006;DHT22;6062;47.294;12.182;2023-03-02T02:43:20;1.30;57.50
12006;DHT22;6062;47.294;12.182;2023-03-02T02:45:48;1.30;57.30
12006;DHT22;6062;47.294;12.182;2023-03-02T02:48:20;1.40;57.30
12006;DHT22;6062;47.294;12.182;2023-03-02T02:50:49;1.40;57.30
12006;DHT22;6062;47.294;12.182;2023-03-02T02:53:29;1.40;57.30
12006;DHT22;6062;47.294;12.182;2023-03-02T02:56:02;1.40;57.30
12006;DHT22;6062;47.294;12.182;2023-03-02T02:58:38;1.40;57.20
12006;DHT22;6062;47.294;12.182;2023-03-02T03:01:14;1.50;57.20
12006;DHT22;6062;47.294;12.182;2023-03-02T03:03:52;1.50;57.30
12006;DHT22;6062;47.294;12.182;2023-03-02T03:06:26;1.50;57.40
12006;DHT22;6062;47.294;12.182;2023-03-02T03:09:05;1.50;57.50
12006;DHT22;6062;47.294;12.182;2023-03-02T03:11:38;1.50;57.20
12006;DHT22;6062;47.294;12.182;2023-03-02T03:14:18;1.50;57.00
12006;DHT22;6062;47.294;12.182;2023-03-02T03:16:48;1.60;57.10
12006;DHT22;6062;47.294;12.182;2023-03-02T03:22:00;1.60;57.10
12006;DHT22;6062;47.294;12.182;2023-03-02T03:24:28;1.60;56.90
12006;DHT22;6062;47.294;12.182;2023-03-02T03:26:55;1.60;56.80
12006;DHT22;6062;47.294;12.182;2023-03-02T03:29:23;1.60;56.80
12006;DHT22;6062;47.294;12.182;2023-03-02T03:31:51;1.60;56.90
12006;DHT22;6062;47.294;12.182;2023-03-02T03:34:18;1.60;57.00
12006;DHT22;6062;47.294;12.182;2023-03-02T03:36:44;1.60;57.20
12006;DHT22;6062;47.294;12.182;2023-03-02T03:39:10;1.60;57.20
12006;DHT22;6062;47.294;12.182;2023-03-02T03:41:37;1.60;57.30
12006;DHT22;6062;47.294;12.182;2023-03-02T03:44:03;1.60;57.60
12006;DHT22;6062;47.294;12.182;2023-03-02T03:46:29;1.60;57.70
12006;DHT22;6062;47.294;12.182;2023-03-02T03:48:55;1.60;57.80
12006;DHT22;6062;47.294;12.182;2023-03-02T03:51:21;1.60;57.80
12006;DHT22;6062;47.294;12.182;2023-03-02T03:53:47;1.60;57.80
12006;DHT22;6062;47.294;12.182;2023-03-02T03:56:27;1.70;57.80
12006;DHT22;6062;47.294;12.182;2023-03-02T03:58:54;1.70;57.60
12006;DHT22;6062;47.294;12.182;2023-03-02T04:01:38;1.70;57.40
12006;DHT22;6062;47.294;12.182;2023-03-02T04:04:09;1.80;57.30
12006;DHT22;6062;47.294;12.182;2023-03-02T04:06:36;1.80;57.00
12006;DHT22;6062;47.294;12.182;2023-03-02T04:09:03;1.80;56.70
12006;DHT22;6062;47.294;12.182;2023-03-02T04:11:37;1.80;56.50
12006;DHT22;6062;47.294;12.182;2023-03-02T04:14:06;1.80;56.50
12006;DHT22;6062;47.294;12.182;2023-03-02T04:16:33;1.80;56.60
12006;DHT22;6062;47.294;12.182;2023-03-02T04:19:00;1.80;56.70
12006;DHT22;6062;47.294;12.182;2023-03-02T04:21:26;1.70;56.90
12006;DHT22;6062;47.294;12.182;2023-03-02T04:23:52;1.70;57.20
12006;DHT22;6062;47.294;12.182;2023-03-02T04:26:18;1.70;57.30
12006;DHT22;6062;47.294;12.182;2023-03-02T04:28:44;1.70;57.40
12006;DHT22;6062;47.294;12.182;2023-03-02T04:31:10;1.70;57.40
12006;DHT22;6062;47.294;12.182;2023-03-02T04:33:35;1.80;57.20
12006;DHT22;6062;47.294;12.182;2023-03-02T04:36:03;1.80;57.00
12006;DHT22;6062;47.294;12.182;2023-03-02T04:38:29;1.80;57.00
12006;DHT22;6062;47.294;12.182;2023-03-02T04:40:56;1.80;57.00
12006;DHT22;6062;47.294;12.182;2023-03-02T04:43:23;1.80;56.90
12006;DHT22;6062;47.294;12.182;2023-03-02T04:45:51;1.90;56.90
12006;DHT22;6062;47.294;12.182;2023-03-02T04:48:19;1.90;56.90
12006;DHT22;6062;47.294;12.182;2023-03-02T04:50:45;1.90;56.90
12006;DHT22;6062;47.294;12.182;2023-03-02T04:53:11;1.90;56.90
12006;DHT22;6062;47.294;12.182;2023-03-02T04:55:38;1.90;56.90
12006;DHT22;6062;47.294;12.182;2023-03-02T04:58:04;1.90;56.80
12006;DHT22;6062;47.294;12.182;2023-03-02T05:00:30;1.90;56.80
12006;DHT22;6062;47.294;12.182;2023-03-02T05:02:58;2.00;56.90
12006;DHT22;6062;47.294;12.182;2023-03-02T05:05:25;2.00;56.90
12006;DHT22;6062;47.294;12.182;2023-03-02T05:07:52;2.00;56.70
12006;DHT22;6062;47.294;12.182;2023-03-02T05:10:20;2.00;56.70
12006;DHT22;6062;47.294;12.182;2023-03-02T05:12:47;2.00;56.50
12006;DHT22;6062;47.294;12.182;2023-03-02T05:15:38;2.00;56.30
12006;DHT22;6062;47.294;12.182;2023-03-02T05:18:07;2.00;56.00
12006;DHT22;6062;47.294;12.182;2023-03-02T05:20:34;2.00;55.80
12006;DHT22;6062;47.294;12.182;2023-03-02T05:23:03;2.00;55.70
12006;DHT22;6062;47.294;12.182;2023-03-02T05:25:33;2.00;55.50
12006;DHT22;6062;47.294;12.182;2023-03-02T05:28:01;2.00;55.30
12006;DHT22;6062;47.294;12.182;2023-03-02T05:30:28;2.00;55.20
12006;DHT22;6062;47.294;12.182;2023-03-02T05:32:55;1.90;55.10
12006;DHT22;6062;47.294;12.182;2023-03-02T05:35:21;1.90;55.00
12006;DHT22;6062;47.294;12.182;2023-03-02T05:37:47;1.90;55.10
12006;DHT22;6062;47.294;12.182;2023-03-02T05:40:17;1.80;55.00
12006;DHT22;6062;47.294;12.182;2023-03-02T05:42:44;1.80;55.00
12006;DHT22;6062;47.294;12.182;2023-03-02T05:45:23;1.80;55.00
12006;DHT22;6062;47.294;12.182;2023-03-02T05:47:52;1.70;55.10
12006;DHT22;6062;47.294;12.182;2023-03-02T05:50:19;1.70;55.10
12006;DHT22;6062;47.294;12.182;2023-03-02T05:52:45;1.60;55.10
12006;DHT22;6062;47.294;12.182;2023-03-02T05:55:13;1.60;55.10
12006;DHT22;6062;47.294;12.182;2023-03-02T05:57:40;1.60;55.20
12006;DHT22;6062;47.294;12.182;2023-03-02T06:00:06;1.60;55.30
12006;DHT22;6062;47.294;12.182;2023-03-02T06:02:34;1.50;55.10
12006;DHT22;6062;47.294;12.182;2023-03-02T06:05:04;1.50;55.10
12006;DHT22;6062;47.294;12.182;2023-03-02T06:07:32;1.50;55.20
12006;DHT22;6062;47.294;12.182;2023-03-02T06:09:58;1.40;55.20
12006;DHT22;6062;47.294;12.182;2023-03-02T06:12:23;1.40;55.30
12006;DHT22;6062;47.294;12.182;2023-03-02T06:14:49;1.40;55.40
12006;DHT22;6062;47.294;12.182;2023-03-02T06:17:15;1.40;55.50
12006;DHT22;6062;47.294;12.182;2023-03-02T06:19:40;1.40;55.50
12006;DHT22;6062;47.294;12.182;2023-03-02T06:22:06;1.40;55.60
12006;DHT22;6062;47.294;12.182;2023-03-02T06:24:32;1.40;55.50
12006;DHT22;6062;47.294;12.182;2023-03-02T06:26:58;1.50;55.60
12006;DHT22;6062;47.294;12.182;2023-03-02T06:29:24;1.50;55.70
12006;DHT22;6062;47.294;12.182;2023-03-02T06:31:50;1.50;55.70
12006;DHT22;6062;47.294;12.182;2023-03-02T06:34:15;1.60;55.90
12006;DHT22;6062;47.294;12.182;2023-03-02T06:36:41;1.60;56.00
12006;DHT22;6062;47.294;12.182;2023-03-02T06:39:07;1.70;56.00
12006;DHT22;6062;47.294;12.182;2023-03-02T06:41:41;1.70;55.80
12006;DHT22;6062;47.294;12.182;2023-03-02T06:44:10;1.80;55.70
12006;DHT22;6062;47.294;12.182;2023-03-02T06:46:38;1.80;55.50
12006;DHT22;6062;47.294;12.182;2023-03-02T06:49:05;1.90;55.50
12006;DHT22;6062;47.294;12.182;2023-03-02T06:51:31;1.90;55.40
12006;DHT22;6062;47.294;12.182;2023-03-02T06:53:57;2.00;55.50
12006;DHT22;6062;47.294;12.182;2023-03-02T06:56:23;2.10;55.70
12006;DHT22;6062;47.294;12.182;2023-03-02T06:58:48;2.20;55.80
12006;DHT22;6062;47.294;12.182;2023-03-02T07:01:14;2.30;55.90
12006;DHT22;6062;47.294;12.182;2023-03-02T07:03:40;2.40;56.00
12006;DHT22;6062;47.294;12.182;2023-03-02T07:06:06;2.60;56.10
12006;DHT22;6062;47.294;12.182;2023-03-02T07:08:32;2.90;56.30
12006;DHT22;6062;47.294;12.182;2023-03-02T07:10:59;3.20;56.50
12006;DHT22;6062;47.294;12.182;2023-03-02T07:13:29;3.50;56.60
12006;DHT22;6062;47.294;12.182;2023-03-02T07:15:55;3.90;56.00
12006;DHT22;6062;47.294;12.182;2023-03-02T07:18:21;4.20;55.30
12006;DHT22;6062;47.294;12.182;2023-03-02T07:20:46;4.50;54.80
12006;DHT22;6062;47.294;12.182;2023-03-02T07:23:12;4.80;54.20
12006;DHT22;6062;47.294;12.182;2023-03-02T07:25:38;5.00;53.60
12006;DHT22;6062;47.294;12.182;2023-03-02T07:28:03;5.30;53.30
12006;DHT22;6062;47.294;12.182;2023-03-02T07:30:29;5.40;52.90
12006;DHT22;6062;47.294;12.182;2023-03-02T07:32:55;5.70;52.40
12006;DHT22;6062;47.294;12.182;2023-03-02T07:35:21;5.90;52.00
12006;DHT22;6062;47.294;12.182;2023-03-02T07:37:47;6.10;51.80
12006;DHT22;6062;47.294;12.182;2023-03-02T07:40:13;6.30;51.60
12006;DHT22;6062;47.294;12.182;2023-03-02T07:42:39;6.50;51.20
12006;DHT22;6062;47.294;12.182;2023-03-02T07:45:05;6.80;51.10
12006;DHT22;6062;47.294;12.182;2023-03-02T07:47:31;7.10;51.00
12006;DHT22;6062;47.294;12.182;2023-03-02T07:49:57;7.40;51.00
12006;DHT22;6062;47.294;12.182;2023-03-02T07:52:23;7.70;50.70
12006;DHT22;6062;47.294;12.182;2023-03-02T07:54:49;8.10;50.20
12006;DHT22;6062;47.294;12.182;2023-03-02T07:57:15;8.40;49.90
12006;DHT22;6062;47.294;12.182;2023-03-02T07:59:43;8.70;49.40
12006;DHT22;6062;47.294;12.182;2023-03-02T08:02:12;9.10;48.80
12006;DHT22;6062;47.294;12.182;2023-03-02T08:04:39;9.40;48.40
12006;DHT22;6062;47.294;12.182;2023-03-02T08:07:05;9.80;48.40
12006;DHT22;6062;47.294;12.182;2023-03-02T08:09:31;10.20;48.40
12006;DHT22;6062;47.294;12.182;2023-03-02T08:11:57;10.70;47.60
12006;DHT22;6062;47.294;12.182;2023-03-02T08:14:23;11.20;46.90
12006;DHT22;6062;47.294;12.182;2023-03-02T08:16:49;11.60;45.80
12006;DHT22;6062;47.294;12.182;2023-03-02T08:19:17;12.00;44.20
12006;DHT22;6062;47.294;12.182;2023-03-02T08:21:43;12.30;42.60
12006;DHT22;6062;47.294;12.182;2023-03-02T08:24:10;12.50;41.10
12006;DHT22;6062;47.294;12.182;2023-03-02T08:26:36;12.60;40.30
12006;DHT22;6062;47.294;12.182;2023-03-02T08:29:03;12.50;39.40
12006;DHT22;6062;47.294;12.182;2023-03-02T08:31:29;12.50;39.00
12006;DHT22;6062;47.294;12.182;2023-03-02T08:33:56;12.30;38.60
12006;DHT22;6062;47.294;12.182;2023-03-02T08:36:24;12.10;38.40
12006;DHT22;6062;47.294;12.182;2023-03-02T08:38:51;11.90;38.40
12006;DHT22;6062;47.294;12.182;2023-03-02T08:41:20;11.60;38.40
12006;DHT22;6062;47.294;12.182;2023-03-02T08:43:48;11.40;38.50
12006;DHT22;6062;47.294;12.182;2023-03-02T08:46:18;11.10;38.80
12006;DHT22;6062;47.294;12.182;2023-03-02T08:48:44;10.90;39.10
12006;DHT22;6062;47.294;12.182;2023-03-02T08:51:16;10.70;39.40
12006;DHT22;6062;47.294;12.182;2023-03-02T08:53:46;10.50;39.60
12006;DHT22;6062;47.294;12.182;2023-03-02T08:56:17;10.30;39.90
12006;DHT22;6062;47.294;12.182;2023-03-02T08:58:49;10.20;40.30
12006;DHT22;6062;47.294;12.182;2023-03-02T09:01:20;10.10;40.80
12006;DHT22;6062;47.294;12.182;2023-03-02T09:03:50;10.00;41.50
12006;DHT22;6062;47.294;12.182;2023-03-02T09:06:16;10.00;42.80
12006;DHT22;6062;47.294;12.182;2023-03-02T09:08:43;10.20;43.80
12006;DHT22;6062;47.294;12.182;2023-03-02T09:11:09;10.50;43.90
12006;DHT22;6062;47.294;12.182;2023-03-02T09:13:35;10.90;43.70
12006;DHT22;6062;47.294;12.182;2023-03-02T09:16:01;11.30;42.80
12006;DHT22;6062;47.294;12.182;2023-03-02T09:18:28;11.80;42.30
12006;DHT22;6062;47.294;12.182;2023-03-02T09:20:56;12.20;41.20
12006;DHT22;6062;47.294;12.182;2023-03-02T09:23:24;12.50;40.70
12006;DHT22;6062;47.294;12.182;2023-03-02T09:25:51;12.90;40.40
12006;DHT22;6062;47.294;12.182;2023-03-02T09:28:17;13.30;39.70
12006;DHT22;6062;47.294;12.182;2023-03-02T09:30:51;13.60;39.10
12006;DHT22;6062;47.294;12.182;2023-03-02T09:33:18;13.90;37.80
12006;DHT22;6062;47.294;12.182;2023-03-02T09:35:45;14.10;37.00
12006;DHT22;6062;47.294;12.182;2023-03-02T09:38:12;14.30;35.80
12006;DHT22;6062;47.294;12.182;2023-03-02T09:52:27;14.00;34.70
12006;DHT22;6062;47.294;12.182;2023-03-02T09:54:55;13.90;34.60
12006;DHT22;6062;47.294;12.182;2023-03-02T09:57:31;13.70;34.80
12006;DHT22;6062;47.294;12.182;2023-03-02T10:00:02;13.50;34.80
12006;DHT22;6062;47.294;12.182;2023-03-02T10:02:47;13.40;35.00
12006;DHT22;6062;47.294;12.182;2023-03-02T10:05:44;13.30;35.30
12006;DHT22;6062;47.294;12.182;2023-03-02T10:08:28;13.10;35.40
12006;DHT22;6062;47.294;12.182;2023-03-02T10:14:11;13.00;36.40
12006;DHT22;6062;47.294;12.182;2023-03-02T10:17:02;13.00;36.40
12006;DHT22;6062;47.294;12.182;2023-03-02T10:19:43;13.00;36.30
12006;DHT22;6062;47.294;12.182;2023-03-02T10:22:27;13.10;36.10
12006;DHT22;6062;47.294;12.182;2023-03-02T10:25:29;13.10;35.90
12006;DHT22;6062;47.294;12.182;2023-03-02T10:28:10;13.10;35.40
12006;DHT22;6062;47.294;12.182;2023-03-02T10:30:54;13.10;35.30
12006;DHT22;6062;47.294;12.182;2023-03-02T10:33:27;13.00;35.30
12006;DHT22;6062;47.294;12.182;2023-03-02T10:35:53;12.90;35.30
12006;DHT22;6062;47.294;12.182;2023-03-02T10:38:21;12.80;35.30
12006;DHT22;6062;47.294;12.182;2023-03-02T10:40:50;12.70;35.30
12006;DHT22;6062;47.294;12.182;2023-03-02T10:43:34;12.50;35.70
12006;DHT22;6062;47.294;12.182;2023-03-02T10:46:06;12.40;35.90
12006;DHT22;6062;47.294;12.182;2023-03-02T10:48:51;12.30;36.20
12006;DHT22;6062;47.294;12.182;2023-03-02T10:51:28;12.10;36.20
12006;DHT22;6062;47.294;12.182;2023-03-02T10:56:46;12.00;37.00
12006;DHT22;6062;47.294;12.182;2023-03-02T10:59:37;11.90;37.30
12006;DHT22;6062;47.294;12.182;2023-03-02T11:04:47;12.00;38.10
12006;DHT22;6062;47.294;12.182;2023-03-02T11:07:20;12.20;38.30
12006;DHT22;6062;47.294;12.182;2023-03-02T11:09:57;12.30;38.00
12006;DHT22;6062;47.294;12.182;2023-03-02T11:12:27;12.60;37.90
12006;DHT22;6062;47.294;12.182;2023-03-02T11:15:17;12.80;37.90
12006;DHT22;6062;47.294;12.182;2023-03-02T11:17:59;13.00;37.50
12006;DHT22;6062;47.294;12.182;2023-03-02T11:20:32;13.30;37.40
12006;DHT22;6062;47.294;12.182;2023-03-02T11:25:57;13.90;36.60
12006;DHT22;6062;47.294;12.182;2023-03-02T11:31:11;14.50;35.70
12006;DHT22;6062;47.294;12.182;2023-03-02T11:39:12;15.30;34.60
12006;DHT22;6062;47.294;12.182;2023-03-02T11:41:42;15.40;34.00
12006;DHT22;6062;47.294;12.182;2023-03-02T11:44:14;15.50;33.80
12006;DHT22;6062;47.294;12.182;2023-03-02T11:46:46;15.60;33.40
12006;DHT22;6062;47.294;12.182;2023-03-02T11:49:20;15.60;33.20
12006;DHT22;6062;47.294;12.182;2023-03-02T11:51:55;15.70;33.40
12006;DHT22;6062;47.294;12.182;2023-03-02T11:56:58;15.80;33.30
12006;DHT22;6062;47.294;12.182;2023-03-02T11:59:25;15.90;33.60
12006;DHT22;6062;47.294;12.182;2023-03-02T12:01:53;15.90;33.00
12006;DHT22;6062;47.294;12.182;2023-03-02T12:04:34;15.90;32.60
12006;DHT22;6062;47.294;12.182;2023-03-02T12:07:15;15.80;32.20
12006;DHT22;6062;47.294;12.182;2023-03-02T12:10:03;15.70;32.10
12006;DHT22;6062;47.294;12.182;2023-03-02T12:13:12;15.60;32.20
12006;DHT22;6062;47.294;12.182;2023-03-02T12:15:44;15.40;32.20
12006;DHT22;6062;47.294;12.182;2023-03-02T12:21:18;15.00;33.00
12006;DHT22;6062;47.294;12.182;2023-03-02T12:31:53;14.40;34.00
12006;DHT22;6062;47.294;12.182;2023-03-02T12:36:55;14.20;33.90
12006;DHT22;6062;47.294;12.182;2023-03-02T12:48:03;13.70;34.20
12006;DHT22;6062;47.294;12.182;2023-03-02T12:50:40;13.50;34.60
12006;DHT22;6062;47.294;12.182;2023-03-02T12:53:16;13.40;34.80
12006;DHT22;6062;47.294;12.182;2023-03-02T12:55:43;13.30;35.10
12006;DHT22;6062;47.294;12.182;2023-03-02T12:58:27;13.20;35.30
12006;DHT22;6062;47.294;12.182;2023-03-02T13:00:59;13.10;35.30
12006;DHT22;6062;47.294;12.182;2023-03-02T13:03:27;13.00;35.50
12006;DHT22;6062;47.294;12.182;2023-03-02T13:06:03;13.00;35.70
12006;DHT22;6062;47.294;12.182;2023-03-02T13:08:35;12.80;35.70
12006;DHT22;6062;47.294;12.182;2023-03-02T13:11:01;12.70;36.10
12006;DHT22;6062;47.294;12.182;2023-03-02T13:13:35;12.70;36.20
12006;DHT22;6062;47.294;12.182;2023-03-02T13:16:25;12.60;36.10
12006;DHT22;6062;47.294;12.182;2023-03-02T13:18:56;12.60;35.90
12006;DHT22;6062;47.294;12.182;2023-03-02T13:21:34;12.50;35.90
12006;DHT22;6062;47.294;12.182;2023-03-02T13:24:03;12.40;36.10
12006;DHT22;6062;47.294;12.182;2023-03-02T13:27:15;12.30;36.30
12006;DHT22;6062;47.294;12.182;2023-03-02T13:29:45;12.20;36.30
12006;DHT22;6062;47.294;12.182;2023-03-02T13:32:24;12.10;36.60
12006;DHT22;6062;47.294;12.182;2023-03-02T13:34:55;12.00;36.60
12006;DHT22;6062;47.294;12.182;2023-03-02T13:37:43;11.90;36.50
12006;DHT22;6062;47.294;12.182;2023-03-02T13:42:47;11.60;36.70
12006;DHT22;6062;47.294;12.182;2023-03-02T13:45:33;11.50;36.70
12006;DHT22;6062;47.294;12.182;2023-03-02T13:48:12;11.30;36.70
12006;DHT22;6062;47.294;12.182;2023-03-02T13:50:57;11.20;37.00
12006;DHT22;6062;47.294;12.182;2023-03-02T13:53:30;11.00;37.10
12006;DHT22;6062;47.294;12.182;2023-03-02T13:55:59;10.90;37.60
12006;DHT22;6062;47.294;12.182;2023-03-02T13:58:26;10.80;37.70
12006;DHT22;6062;47.294;12.182;2023-03-02T14:00:54;10.60;37.80
12006;DHT22;6062;47.294;12.182;2023-03-02T14:03:28;10.50;38.00
12006;DHT22;6062;47.294;12.182;2023-03-02T14:05:56;10.40;38.50
12006;DHT22;6062;47.294;12.182;2023-03-02T14:08:24;10.30;38.80
12006;DHT22;6062;47.294;12.182;2023-03-02T14:10:52;10.20;39.00
12006;DHT22;6062;47.294;12.182;2023-03-02T14:13:25;10.10;39.10
12006;DHT22;6062;47.294;12.182;2023-03-02T14:15:59;10.00;39.10
12006;DHT22;6062;47.294;12.182;2023-03-02T14:21:07;9.80;39.40
12006;DHT22;6062;47.294;12.182;2023-03-02T14:23:36;9.70;39.50
12006;DHT22;6062;47.294;12.182;2023-03-02T14:26:18;9.60;39.40
12006;DHT22;6062;47.294;12.182;2023-03-02T14:28:45;9.50;39.60
12006;DHT22;6062;47.294;12.182;2023-03-02T14:31:10;9.40;39.60
12006;DHT22;6062;47.294;12.182;2023-03-02T14:33:36;9.30;39.60
12006;DHT22;6062;47.294;12.182;2023-03-02T14:36:03;9.10;39.80
12006;DHT22;6062;47.294;12.182;2023-03-02T14:38:30;9.00;40.00
12006;DHT22;6062;47.294;12.182;2023-03-02T14:40:56;8.90;40.10
12006;DHT22;6062;47.294;12.182;2023-03-02T14:43:22;8.80;40.40
12006;DHT22;6062;47.294;12.182;2023-03-02T14:45:50;8.70;40.30
12006;DHT22;6062;47.294;12.182;2023-03-02T14:48:16;8.60;40.60
12006;DHT22;6062;47.294;12.182;2023-03-02T14:50:45;8.40;41.00
12006;DHT22;6062;47.294;12.182;2023-03-02T14:53:25;8.30;41.20
12006;DHT22;6062;47.294;12.182;2023-03-02T14:55:53;8.20;41.50
12006;DHT22;6062;47.294;12.182;2023-03-02T14:58:29;8.10;41.70
12006;DHT22;6062;47.294;12.182;2023-03-02T15:00:56;8.00;41.90
12006;DHT22;6062;47.294;12.182;2023-03-02T15:03:22;7.80;42.00
12006;DHT22;6062;47.294;12.182;2023-03-02T15:05:50;7.80;42.20
12006;DHT22;6062;47.294;12.182;2023-03-02T15:08:18;7.60;42.50
12006;DHT22;6062;47.294;12.182;2023-03-02T15:10:45;7.50;42.60
12006;DHT22;6062;47.294;12.182;2023-03-02T15:13:13;7.40;42.70
12006;DHT22;6062;47.294;12.182;2023-03-02T15:15:41;7.30;42.80
12006;DHT22;6062;47.294;12.182;2023-03-02T15:18:08;7.20;42.80
12006;DHT22;6062;47.294;12.182;2023-03-02T15:20:36;7.10;43.00
12006;DHT22;6062;47.294;12.182;2023-03-02T15:23:02;7.00;43.10
12006;DHT22;6062;47.294;12.182;2023-03-02T15:25:28;6.90;43.20
12006;DHT22;6062;47.294;12.182;2023-03-02T15:27:55;6.80;43.50
12006;DHT22;6062;47.294;12.182;2023-03-02T15:30:22;6.60;43.70
12006;DHT22;6062;47.294;12.182;2023-03-02T15:32:52;6.50;43.80
12006;DHT22;6062;47.294;12.182;2023-03-02T15:35:19;6.40;44.20
12006;DHT22;6062;47.294;12.182;2023-03-02T15:37:45;6.20;44.10
12006;DHT22;6062;47.294;12.182;2023-03-02T15:40:11;6.10;44.20
12006;DHT22;6062;47.294;12.182;2023-03-02T15:42:37;6.00;44.40
12006;DHT22;6062;47.294;12.182;2023-03-02T15:45:06;5.90;44.40
12006;DHT22;6062;47.294;12.182;2023-03-02T15:47:32;5.80;44.60
12006;DHT22;6062;47.294;12.182;2023-03-02T15:49:58;5.60;44.60
12006;DHT22;6062;47.294;12.182;2023-03-02T15:52:24;5.60;44.90
12006;DHT22;6062;47.294;12.182;2023-03-02T15:54:50;5.40;45.00
12006;DHT22;6062;47.294;12.182;2023-03-02T15:57:16;5.40;45.20
12006;DHT22;6062;47.294;12.182;2023-03-02T15:59:42;5.30;45.30
12006;DHT22;6062;47.294;12.182;2023-03-02T16:02:09;5.20;45.50
12006;DHT22;6062;47.294;12.182;2023-03-02T16:04:35;5.10;45.60
12006;DHT22;6062;47.294;12.182;2023-03-02T16:07:01;5.00;45.70
12006;DHT22;6062;47.294;12.182;2023-03-02T16:09:28;5.00;45.90
12006;DHT22;6062;47.294;12.182;2023-03-02T16:11:55;4.90;46.20
12006;DHT22;6062;47.294;12.182;2023-03-02T16:14:21;4.80;46.30
12006;DHT22;6062;47.294;12.182;2023-03-02T16:16:47;4.70;46.40
12006;DHT22;6062;47.294;12.182;2023-03-02T16:19:15;4.60;46.50
12006;DHT22;6062;47.294;12.182;2023-03-02T16:21:42;4.60;46.90
12006;DHT22;6062;47.294;12.182;2023-03-02T16:24:08;4.50;46.80
12006;DHT22;6062;47.294;12.182;2023-03-02T16:26:36;4.40;46.90
12006;DHT22;6062;47.294;12.182;2023-03-02T16:29:04;4.40;47.10
12006;DHT22;6062;47.294;12.182;2023-03-02T16:31:32;4.30;47.20
12006;DHT22;6062;47.294;12.182;2023-03-02T16:34:02;4.30;47.40
12006;DHT22;6062;47.294;12.182;2023-03-02T16:36:34;4.20;47.60
12006;DHT22;6062;47.294;12.182;2023-03-02T16:39:01;4.10;47.70
12006;DHT22;6062;47.294;12.182;2023-03-02T16:41:28;4.10;47.90
12006;DHT22;6062;47.294;12.182;2023-03-02T16:43:55;4.00;48.10
12006;DHT22;6062;47.294;12.182;2023-03-02T16:46:24;4.00;48.90
12006;DHT22;6062;47.294;12.182;2023-03-02T16:48:51;3.90;48.40
12006;DHT22;6062;47.294;12.182;2023-03-02T16:51:18;3.90;48.40
12006;DHT22;6062;47.294;12.182;2023-03-02T16:53:45;3.90;49.20
12006;DHT22;6062;47.294;12.182;2023-03-02T16:56:12;3.90;48.70
12006;DHT22;6062;47.294;12.182;2023-03-02T16:58:39;3.80;48.60
12006;DHT22;6062;47.294;12.182;2023-03-02T17:01:19;3.80;48.70
12006;DHT22;6062;47.294;12.182;2023-03-02T17:03:47;3.80;48.60
12006;DHT22;6062;47.294;12.182;2023-03-02T17:06:15;3.70;48.50
12006;DHT22;6062;47.294;12.182;2023-03-02T17:08:45;3.70;48.70
12006;DHT22;6062;47.294;12.182;2023-03-02T17:11:11;3.60;48.60